Latest Weather Observations for Adelaide (Kent Town)

IDS60801

Issued at 6:01 am CDT Wednesday 22 November 2017 (issued every 30 minutes, with the page automatically refreshed every 10 minutes)

About weather observations | Map of weather stations | Latest weather observations for SA | Other Formats
Station Details ID: 023090 Name: KENT TOWN Lat: -34.92 Lon: 138.62 Height: 48.0 m
Data from the previous 72 hours. | See also: Recent months at Adelaide (Kent Town)
Date/Time
CDT
Temp
°C
App
Temp
°C
Dew
Point
°C
Rel
Hum
%
Delta-T
°C
Wind Press
QNH
hPa
Press
MSL
hPa
Rain since
9am
mm
Dir  Spd
km/h
Gust
km/h
Spd
kts
Gust
kts
22/06:00am 26.7 23.6 3.7 22 11.5 NE 9 17 5 9 1010.6 1010.5 0.0
22/05:30am 27.1 23.5 2.8 21 12.0 NE 11 19 6 10 1010.4 1010.3 0.0
22/05:00am 27.3 23.7 2.8 20 12.1 NE 11 20 6 11 1010.3 1010.2 0.0
22/04:30am 27.1 23.5 3.1 21 11.9 NNE 11 19 6 10 1010.3 1010.2 0.0
22/04:00am 27.2 24.0 3.0 21 12.0 NE 9 22 5 12 1010.2 1010.1 0.0
22/03:30am 27.7 24.4 2.6 20 12.4 NNE 9 20 5 11 1010.3 1010.2 0.0
22/03:00am 28.2 24.5 2.5 19 12.7 NE 11 20 6 11 1010.2 1010.1 0.0
22/02:30am 28.5 25.2 2.4 18 12.9 NE 9 22 5 12 1010.4 1010.3 0.0
22/02:00am 28.2 25.1 3.6 20 12.4 NE 9 19 5 10 1010.6 1010.5 0.0
22/01:30am 28.2 25.4 3.2 20 12.5 ENE 7 19 4 10 1010.8 1010.7 0.0
22/01:00am 28.2 24.9 2.5 19 12.7 ENE 9 17 5 9 1011.1 1011.0 0.0
22/12:30am 28.2 25.5 3.6 20 12.4 ENE 7 15 4 8 1011.3 1011.2 0.0
22/12:00am 27.9 25.1 3.0 20 12.4 ENE 7 11 4 6 1011.4 1011.3 0.0
 
Date/Time
CDT
Temp
°C
App
Temp
°C
Dew
Point
°C
Rel
Hum
%
Delta-T
°C
Wind Press
QNH
hPa
Press
MSL
hPa
Rain since
9am
mm
Dir  Spd
km/h
Gust
km/h
Spd
kts
Gust
kts
21/11:30pm 28.4 25.1 2.6 19 12.8 ENE 9 15 5 8 1011.6 1011.5 0.0
21/11:00pm 28.5 25.3 3.1 19 12.7 ENE 9 15 5 8 1011.7 1011.6 0.0
21/10:30pm 28.2 25.7 4.9 22 12.0 ENE 7 13 4 7 1011.9 1011.8 0.0
21/10:00pm 28.5 25.9 4.2 21 12.4 ENE 7 11 4 6 1012.1 1012.0 0.0
21/09:30pm 28.7 26.3 5.2 22 12.2 E 7 11 4 6 1012.0 1011.9 0.0
21/09:00pm 28.4 26.8 8.0 27 11.1 E 6 11 3 6 1011.7 1011.6 0.0
21/08:30pm 29.7 28.1 8.2 26 11.8 E 6 9 3 5 1011.6 1011.5 0.0
21/08:00pm 31.3 29.1 6.4 21 13.4 ENE 7 13 4 7 1011.4 1011.3 0.0
21/07:30pm 33.0 29.4 2.7 14 15.5 ENE 11 20 6 11 1011.2 1011.1 0.0
21/07:00pm 33.6 29.7 0.9 12 16.3 ENE 11 24 6 13 1010.9 1010.8 0.0
21/06:30pm 33.6 29.8 -1.0 11 16.7 ENE 9 22 5 12 1010.9 1010.8 0.0
21/06:00pm 34.1 30.1 0.4 12 16.7 NE 11 19 6 10 1010.9 1010.8 0.0
21/05:30pm 33.7 30.1 0.7 12 16.4 NE 9 19 5 10 1011.0 1010.9 0.0
21/05:00pm 34.8 30.2 1.4 12 16.9 NE 15 33 8 18 1011.3 1011.2 0.0
21/04:30pm 34.4 30.3 2.5 13 16.4 NE 13 28 7 15 1011.3 1011.2 0.0
21/04:00pm 35.3 31.3 3.1 13 16.8 ENE 13 30 7 16 1011.6 1011.5 0.0
21/03:30pm 35.2 31.3 3.6 14 16.6 NNE 13 26 7 14 1011.9 1011.8 0.0
21/03:00pm 35.3 31.2 2.2 12 17.0 NNE 13 22 7 12 1012.2 1012.1 0.0
21/02:30pm 34.4 30.6 4.0 15 16.0 E 13 30 7 16 1012.6 1012.5 0.0
21/02:00pm 34.9 31.6 4.4 15 16.2 ENE 11 20 6 11 1012.9 1012.8 0.0
21/01:30pm 34.4 30.3 4.3 15 15.9 NE 15 26 8 14 1013.3 1013.2 0.0
21/01:00pm 34.3 29.7 3.7 14 16.0 NE 17 35 9 19 1013.9 1013.8 0.0
21/12:30pm 34.4 30.7 4.3 15 15.9 NE 13 24 7 13 1014.1 1014.0 0.0
21/12:00pm 34.0 30.6 5.9 17 15.2 NE 13 24 7 13 1014.5 1014.4 0.0
21/11:30am 34.0 30.2 5.9 17 15.2 NE 15 28 8 15 1014.9 1014.8 0.0
21/11:00am 33.3 30.2 7.1 19 14.4 NNE 13 20 7 11 1015.1 1015.0 0.0
21/10:30am 32.1 27.6 6.3 20 13.9 NNE 19 33 10 18 1015.3 1015.2 0.0
21/10:00am 31.5 28.2 12.9 32 11.1 N 22 44 12 24 1015.4 1015.3 0.0
21/09:30am 31.0 36.0 27.7 82 2.4 NNE 17 28 9 15 1015.4 1015.3 0.0
21/09:00am 30.0 34.3 26.1 79 2.8 NNE 15 26 8 14 1015.4 1015.3 0.0
21/08:30am 29.1 33.1 25.0 78 2.9 NNE 13 26 7 14 1015.4 1015.3 0.0
21/08:00am 28.2 32.1 24.3 79 2.7 NE 11 22 6 12 1015.2 1015.1 0.0
21/07:30am 27.2 30.1 22.5 75 3.2 NE 11 20 6 11 1015.1 1015.0 0.0
21/07:00am 26.1 28.8 21.3 75 3.2 NE 9 20 5 11 1015.0 1014.9 0.0
21/06:30am 25.5 28.2 20.6 74 3.2 ENE 7 13 4 7 1014.6 1014.5 0.0
21/06:00am 25.6 27.9 20.7 74 3.2 ENE 9 15 5 8 1014.4 1014.3 0.0
21/05:30am 25.7 28.5 20.8 74 3.2 ENE 7 15 4 8 1014.2 1014.1 0.0
21/05:00am 25.9 28.1 21.2 75 3.1 ENE 11 17 6 9 1014.0 1013.9 0.0
21/04:30am 26.3 29.0 21.3 74 3.3 ENE 9 17 5 9 1014.0 1013.9 0.0
21/04:00am 26.3 29.3 21.3 74 3.3 ENE 7 15 4 8 1014.0 1013.9 0.0
21/03:30am 26.7 29.4 21.4 72 3.5 ENE 9 17 5 9 1013.9 1013.8 0.0
21/03:00am 26.8 29.7 21.7 73 3.4 ENE 9 20 5 11 1014.0 1013.9 0.0
21/02:30am 27.2 30.5 22.5 75 3.2 ENE 9 13 5 7 1013.9 1013.8 0.0
21/02:00am 27.2 31.2 23.1 78 2.8 NE 7 13 4 7 1013.9 1013.8 0.0
21/01:30am 27.6 31.9 23.7 79 2.7 ENE 7 13 4 7 1014.0 1013.9 0.0
21/01:00am 28.1 32.4 23.6 76 3.1 NE 7 13 4 7 1014.2 1014.1 0.0
21/12:30am 28.7 32.9 24.8 79 2.7 NE 11 26 6 14 1014.3 1014.2 0.0
21/12:00am 28.8 32.7 24.3 76 3.1 ENE 11 22 6 12 1014.3 1014.2 0.0
 
Date/Time
CDT
Temp
°C
App
Temp
°C
Dew
Point
°C
Rel
Hum
%
Delta-T
°C
Wind Press
QNH
hPa
Press
MSL
hPa
Rain since
9am
mm
Dir  Spd
km/h
Gust
km/h
Spd
kts
Gust
kts
20/11:30pm 29.0 33.0 24.4 76 3.2 ENE 11 20 6 11 1014.3 1014.2 0.0
20/11:00pm 29.4 33.4 25.1 77 3.0 ENE 13 22 7 12 1014.3 1014.2 0.0
20/10:30pm 29.5 32.7 23.1 68 4.4 NE 11 22 6 12 1014.3 1014.2 0.0
20/10:00pm 29.3 31.9 21.9 64 5.0 ENE 11 20 6 11 1014.1 1014.0 0.0
20/09:30pm 29.3 32.1 21.6 63 5.2 ENE 9 17 5 9 1013.8 1013.7 0.0
20/09:00pm 29.1 31.9 20.8 61 5.5 E 7 13 4 7 1013.6 1013.5 0.0
20/08:30pm 29.5 33.0 21.8 63 5.2 E 6 11 3 6 1013.4 1013.3 0.0
20/08:00pm 30.6 35.2 24.1 68 4.5 ENE 7 11 4 6 1013.1 1013.0 0.0
20/07:30pm 31.8 36.9 26.1 72 4.1 ENE 11 22 6 12 1013.0 1012.9 0.0
20/07:00pm 32.7 38.0 26.4 69 4.5 NE 11 22 6 12 1012.7 1012.6 0.0
20/06:30pm 33.0 38.4 26.6 69 4.6 ENE 11 24 6 13 1012.5 1012.4 0.0
20/06:00pm 33.4 38.4 26.6 67 4.9 ENE 13 20 7 11 1012.4 1012.3 0.0
20/05:30pm 33.3 37.5 25.4 63 5.6 ENE 13 24 7 13 1012.4 1012.3 0.0
20/05:00pm 32.9 38.0 25.5 65 5.3 ENE 9 20 5 11 1012.5 1012.4 0.0
20/04:30pm 33.7 38.3 25.3 61 6.0 NE 11 26 6 14 1012.5 1012.4 0.0
20/04:00pm 33.9 37.4 24.2 57 6.8 E 13 26 7 14 1012.7 1012.6 0.0
20/03:30pm 33.6 36.0 21.5 49 8.2 ENE 11 22 6 12 1012.9 1012.8 0.0
20/03:00pm 33.4 35.3 21.3 49 8.2 ENE 13 22 7 12 1013.3 1013.2 0.0
20/02:30pm 32.9 34.1 19.0 43 9.1 NNE 11 22 6 12 1013.6 1013.5 0.0
20/02:00pm 33.6 35.1 19.7 44 9.2 NE 11 22 6 12 1014.0 1013.9 0.0
20/01:30pm 32.9 33.2 17.1 39 10.1 ENE 11 26 6 14 1014.4 1014.3 0.0
20/01:00pm 33.0 32.9 16.0 36 10.7 NE 11 20 6 11 1014.7 1014.6 0.0
20/12:30pm 32.3 31.2 15.2 35 10.6 ENE 15 30 8 16 1015.1 1015.0 0.0
20/12:00pm 31.7 30.1 15.0 36 10.3 NNE 17 30 9 16 1015.4 1015.3 0.0
20/11:30am 31.9 31.5 16.3 39 9.8 ENE 13 20 7 11 1015.7 1015.6 0.0
20/11:00am 30.9 31.2 17.0 43 8.8 NE 11 20 6 11 1015.9 1015.8 0.0
20/10:30am 30.0 29.1 15.8 42 8.8 NNE 15 24 8 13 1016.1 1016.0 0.0
20/10:00am 29.8 29.4 15.3 41 8.9 NNE 11 20 6 11 1016.2 1016.1 0.0
20/09:30am 27.6 26.5 14.3 44 8.0 NE 13 24 7 13 1016.4 1016.3 0.0
20/09:00am 26.6 26.2 14.2 46 7.4 NE 9 20 5 11 1016.4 1016.3 0.0
20/08:30am 26.4 26.1 14.3 47 7.2 NE 9 17 5 9 1016.4 1016.3 0.0
20/08:00am 26.1 25.7 14.0 47 7.2 NE 9 20 5 11 1016.2 1016.1 0.0
20/07:30am 25.8 24.6 12.9 44 7.5 NE 11 20 6 11 1016.0 1015.9 0.0
20/07:00am 25.4 24.6 13.0 46 7.2 NE 9 22 5 12 1015.9 1015.8 0.0
20/06:30am 25.0 24.3 13.2 48 6.9 NE 9 20 5 11 1015.7 1015.6 0.0
20/06:00am 25.0 23.7 12.5 45 7.2 NE 11 19 6 10 1015.4 1015.3 0.0
20/05:30am 25.4 24.1 12.6 45 7.4 NE 11 24 6 13 1015.2 1015.1 0.0
20/05:00am 25.3 24.1 12.7 45 7.3 NE 11 22 6 12 1014.9 1014.8 0.0
20/04:30am 25.5 24.1 12.3 43 7.6 NE 11 20 6 11 1014.5 1014.4 0.0
20/04:00am 25.9 24.2 12.6 43 7.7 NE 13 24 7 13 1014.5 1014.4 0.0
20/03:30am 26.1 24.3 12.2 42 8.0 ENE 13 24 7 13 1014.6 1014.5 0.0
20/03:00am 26.0 24.9 12.1 42 8.0 ENE 9 20 5 11 1014.4 1014.3 0.0
20/02:30am 26.4 24.5 11.7 40 8.4 ENE 13 26 7 14 1014.3 1014.2 0.0
20/02:00am 26.8 24.4 11.4 38 8.8 ENE 15 30 8 16 1014.2 1014.1 0.0
20/01:30am 26.7 24.6 11.0 37 8.9 ENE 13 26 7 14 1014.1 1014.0 0.0
20/01:00am 26.4 24.9 10.6 37 8.9 E 9 24 5 13 1014.1 1014.0 0.0
20/12:30am 25.8 24.5 11.4 40 8.2 ENE 9 17 5 9 1014.2 1014.1 0.0
20/12:00am 25.9 24.5 11.0 39 8.4 E 9 19 5 10 1014.3 1014.2 0.0
 
Date/Time
CDT
Temp
°C
App
Temp
°C
Dew
Point
°C
Rel
Hum
%
Delta-T
°C
Wind Press
QNH
hPa
Press
MSL
hPa
Rain since
9am
mm
Dir  Spd
km/h
Gust
km/h
Spd
kts
Gust
kts
19/11:30pm 25.9 24.1 11.0 39 8.4 ENE 11 20 6 11 1014.1 1014.0 0.0
19/11:00pm 26.0 24.3 11.2 39 8.4 ENE 11 20 6 11 1014.1 1014.0 0.0
19/10:30pm 26.0 23.9 11.2 39 8.4 ENE 13 24 7 13 1014.0 1013.9 0.0
19/10:00pm 26.4 24.6 11.0 38 8.7 E 11 24 6 13 1013.8 1013.7 0.0
19/09:30pm 26.0 25.3 11.9 41 8.1 E 7 13 4 7 1013.6 1013.5 0.0
19/09:00pm 25.8 26.0 13.1 45 7.4 SE 4 11 2 6 1013.6 1013.5 0.0
19/08:30pm 26.6 26.2 12.9 42 8.0 ESE 7 13 4 7 1013.4 1013.3 0.0
19/08:00pm 28.1 26.8 11.1 34 9.7 E 9 19 5 10 1013.4 1013.3 0.0
19/07:30pm 29.2 27.8 10.8 32 10.5 E 9 17 5 9 1013.2 1013.1 0.0
19/07:00pm 29.8 27.5 10.3 29 11.1 E 13 19 7 10 1013.0 1012.9 0.0
19/06:30pm 30.6 28.8 10.8 29 11.4 E 11 26 6 14 1012.7 1012.6 0.0
19/06:00pm 30.5 28.2 9.0 26 12.0 ENE 11 20 6 11 1012.7 1012.6 0.0
19/05:30pm 31.0 28.7 9.1 25 12.3 ENE 11 22 6 12 1012.7 1012.6 0.0
19/05:00pm 31.6 29.1 9.8 26 12.4 ENE 13 26 7 14 1012.7 1012.6 0.0
19/04:30pm 31.4 29.2 9.2 25 12.5 ENE 11 22 6 12 1012.8 1012.7 0.0
19/04:00pm 31.1 28.5 9.5 26 12.2 ENE 13 24 7 13 1013.1 1013.0 0.0
19/03:30pm 30.9 28.6 10.5 28 11.7 E 13 22 7 12 1013.4 1013.3 0.0
19/03:00pm 30.7 28.6 9.9 27 11.8 ENE 11 20 6 11 1013.9 1013.8 0.0
19/02:30pm 30.0 28.0 10.3 29 11.2 ENE 11 26 6 14 1014.3 1014.2 0.0
19/02:00pm 29.9 27.4 8.0 25 12.0 NE 11 20 6 11 1014.8 1014.7 0.0
19/01:30pm 29.5 27.3 9.5 28 11.2 NE 11 20 6 11 1015.1 1015.0 0.0
19/01:00pm 29.1 26.3 9.9 30 10.8 E 15 24 8 13 1015.3 1015.2 0.0
19/12:30pm 29.0 27.1 10.5 31 10.5 ENE 11 20 6 11 1015.5 1015.4 0.0
19/12:00pm 28.8 26.8 11.4 34 10.0 ENE 13 26 7 14 1015.6 1015.5 0.0
19/11:30am 28.4 26.0 11.3 34 9.8 E 15 26 8 14 1015.6 1015.5 0.0
19/11:00am 28.1 26.4 12.5 38 9.1 E 13 26 7 14 1015.8 1015.7 0.0
19/10:30am 26.8 24.6 12.1 40 8.5 E 15 28 8 15 1015.7 1015.6 0.0
19/10:00am 26.2 25.0 12.8 43 7.8 ENE 11 24 6 13 1015.6 1015.5 0.0
19/09:30am 25.0 24.2 12.9 47 7.0 ENE 9 20 5 11 1015.6 1015.5 0.0
19/09:00am 24.2 22.7 13.0 49 6.5 ENE 13 24 7 13 1015.5 1015.4 0.2
19/08:30am 23.1 21.6 13.0 53 5.8 ENE 13 24 7 13 1015.3 1015.2 0.2
19/08:00am 22.4 22.0 12.4 53 5.7 NE 6 19 3 10 1015.0 1014.9 0.2
19/07:30am 19.8 19.5 12.7 63 4.0 NNW 6 11 3 6 1015.0 1014.9 0.2
19/07:00am 17.2 16.3 12.7 75 2.5 WNW 9 15 5 8 1014.9 1014.8 0.2
19/06:30am 14.7 15.6 12.9 89 1.0 CALM 0 0 0 0 1014.4 1014.3 0.2

Other Formats:

Comma delimited format used in spreadsheet applications
http://www.bom.gov.au/fwo/IDS60801/IDS60801.94675.axf

JavaScript Object Notation format (JSON) in row-major order
http://www.bom.gov.au/fwo/IDS60801/IDS60801.94675.json